Time;durP1;ratioP1;P1;durP2;ratioP2;P2;SDS_P1;SDS_P2;PMS_P1;PMS_P2;Temp;Humidity;BMP_temperature;BMP_pressure;BME280_temperature;BME280_humidity;BME280_pressure;Samples;Min_cycle;Max_cycle;Signal;HPM_P1;HPM_P2
2021/01/20 00:00:06;;;;;;;15.53;10.10;;;5.70;99.90;;;;;;5074471;28;20186;-78
2021/01/20 00:02:33;;;;;;;13.93;10.05;;;5.60;99.90;;;;;;5075088;28;20670;-78
2021/01/20 00:04:59;;;;;;;17.77;9.73;;;5.50;99.90;;;;;;5075409;28;20197;-78
2021/01/20 00:07:26;;;;;;;13.23;9.57;;;5.50;99.90;;;;;;5075356;28;20280;-78
2021/01/20 00:09:52;;;;;;;15.93;10.70;;;5.50;99.90;;;;;;5075241;28;20276;-78
2021/01/20 00:12:18;;;;;;;14.02;9.50;;;5.50;99.90;;;;;;5075363;28;20284;-78
2021/01/20 00:14:44;;;;;;;14.52;11.10;;;5.40;99.90;;;;;;5075165;28;20276;-78
2021/01/20 00:17:10;;;;;;;13.35;9.40;;;5.40;99.90;;;;;;5074954;28;20559;-78
2021/01/20 00:19:36;;;;;;;12.65;9.80;;;5.30;99.90;;;;;;5075032;28;20201;-78
2021/01/20 00:22:03;;;;;;;13.73;10.60;;;5.30;99.90;;;;;;5075242;28;20304;-78
2021/01/20 00:24:29;;;;;;;14.23;10.18;;;5.20;99.90;;;;;;5075060;28;20590;-78
2021/01/20 00:26:55;;;;;;;11.88;10.30;;;5.10;99.90;;;;;;5074862;28;20320;-78
2021/01/20 00:29:21;;;;;;;13.17;9.50;;;5.10;99.90;;;;;;5074804;28;20194;-78
2021/01/20 00:31:47;;;;;;;13.90;10.50;;;5.00;99.90;;;;;;5074484;28;20952;-78
2021/01/20 00:34:13;;;;;;;16.00;11.00;;;5.00;99.90;;;;;;5074996;28;20436;-78
2021/01/20 00:36:39;;;;;;;12.87;11.17;;;5.10;99.90;;;;;;5074901;28;20488;-78
2021/01/20 00:39:06;;;;;;;14.73;11.00;;;5.00;99.90;;;;;;5074719;28;20453;-78
2021/01/20 00:41:32;;;;;;;18.05;10.75;;;5.00;99.90;;;;;;5074670;28;20284;-78
2021/01/20 00:43:58;;;;;;;15.23;10.30;;;5.00;99.90;;;;;;5058159;28;20235;-79
2021/01/20 00:46:24;;;;;;;15.35;10.32;;;5.10;99.90;;;;;;5074846;28;20197;-79
2021/01/20 00:48:50;;;;;;;14.98;9.98;;;5.00;99.90;;;;;;5074744;28;20344;-79
2021/01/20 00:51:16;;;;;;;15.75;10.38;;;5.00;99.90;;;;;;5072143;28;20208;-79
2021/01/20 00:53:43;;;;;;;14.40;9.43;;;5.00;99.90;;;;;;5074765;28;20205;-79
2021/01/20 00:56:10;;;;;;;13.70;10.57;;;5.00;99.90;;;;;;5074591;28;20528;-78
2021/01/20 00:58:36;;;;;;;18.35;11.20;;;5.00;99.90;;;;;;5074712;28;20200;-78
2021/01/20 01:01:03;;;;;;;15.60;11.27;;;5.00;99.90;;;;;;5074610;28;20225;-78
2021/01/20 01:03:29;;;;;;;13.23;9.45;;;4.90;99.90;;;;;;5074700;28;20272;-78
2021/01/20 01:05:55;;;;;;;13.87;9.97;;;4.90;99.90;;;;;;5074625;28;20327;-78
2021/01/20 01:08:22;;;;;;;13.13;9.32;;;4.90;99.90;;;;;;5073275;28;20450;-78
2021/01/20 01:10:49;;;;;;;14.68;10.68;;;4.90;99.90;;;;;;5070293;28;20185;-78
2021/01/20 01:13:15;;;;;;;13.38;10.15;;;4.90;99.90;;;;;;5074376;28;20268;-78
2021/01/20 01:15:42;;;;;;;13.23;8.88;;;4.90;99.90;;;;;;5074337;28;20544;-79
2021/01/20 01:18:08;;;;;;;12.65;9.05;;;4.90;99.90;;;;;;5074023;28;20276;-79
2021/01/20 01:20:35;;;;;;;15.20;9.88;;;4.90;99.90;;;;;;5074207;28;20193;-79
2021/01/20 01:23:01;;;;;;;12.35;9.65;;;4.90;99.90;;;;;;5074100;28;20656;-81
2021/01/20 01:25:27;;;;;;;20.00;10.25;;;4.90;99.90;;;;;;5073828;28;20185;-78
2021/01/20 01:27:54;;;;;;;15.55;9.80;;;5.00;99.90;;;;;;5074080;28;20217;-78
2021/01/20 01:30:21;;;;;;;15.10;10.30;;;5.10;99.90;;;;;;5074524;28;20200;-78
2021/01/20 01:32:47;;;;;;;12.93;10.35;;;5.10;99.90;;;;;;5074490;28;20284;-78
2021/01/20 01:35:13;;;;;;;14.90;10.50;;;5.10;99.90;;;;;;5074307;28;20652;-78
2021/01/20 01:37:39;;;;;;;16.65;10.50;;;5.20;99.90;;;;;;5074225;28;20452;-75
2021/01/20 01:40:06;;;;;;;13.38;9.35;;;5.20;99.90;;;;;;5074217;28;20221;-76
2021/01/20 01:42:32;;;;;;;15.23;9.60;;;5.30;99.90;;;;;;5073934;28;20779;-75
2021/01/20 01:45:00;;;;;;;11.83;9.53;;;5.30;99.90;;;;;;5074320;28;20205;-75
2021/01/20 01:47:26;;;;;;;11.77;9.85;;;5.30;99.90;;;;;;5074156;28;20550;-76
2021/01/20 01:49:56;;;;;;;15.07;10.25;;;5.40;99.90;;;;;;5074124;28;20280;-76
2021/01/20 01:52:22;;;;;;;16.65;10.20;;;5.30;99.90;;;;;;5073943;28;20710;-76
2021/01/20 01:54:52;;;;;;;15.10;10.77;;;5.30;99.90;;;;;;5073960;28;20620;-76
2021/01/20 01:57:19;;;;;;;12.25;9.38;;;5.40;99.90;;;;;;5073651;28;20652;-75
2021/01/20 01:59:45;;;;;;;13.98;10.50;;;5.40;99.90;;;;;;5074060;28;20189;-76
2021/01/20 02:02:12;;;;;;;13.15;10.48;;;5.40;99.90;;;;;;5073682;28;20304;-76
2021/01/20 02:04:38;;;;;;;14.50;10.50;;;5.30;99.90;;;;;;5073790;28;20189;-75
2021/01/20 02:07:04;;;;;;;12.98;10.38;;;5.40;99.90;;;;;;5073577;28;20231;-75
2021/01/20 02:09:31;;;;;;;14.00;10.05;;;5.40;99.90;;;;;;5073683;28;20284;-75
2021/01/20 02:12:11;;;;;;;13.68;11.13;;;5.40;99.90;;;;;;5073672;28;20189;-75
2021/01/20 02:14:50;;;;;;;15.90;11.75;;;5.40;99.90;;;;;;5073747;28;20275;-75
2021/01/20 02:17:24;;;;;;;15.55;10.85;;;5.40;99.90;;;;;;5073518;28;20288;-76
2021/01/20 02:20:11;;;;;;;14.13;12.02;;;5.40;99.90;;;;;;5073554;28;20197;-75
2021/01/20 02:22:40;;;;;;;15.00;11.55;;;5.40;99.90;;;;;;5073256;28;20302;-76
2021/01/20 02:25:29;;;;;;;14.93;11.90;;;5.50;99.90;;;;;;5073452;28;20193;-76
2021/01/20 02:28:06;;;;;;;16.85;12.50;;;5.50;99.90;;;;;;5073304;28;20275;-75
2021/01/20 02:30:36;;;;;;;19.70;13.60;;;5.40;99.90;;;;;;5073240;28;20283;-76
2021/01/20 02:33:04;;;;;;;19.60;13.60;;;5.40;99.90;;;;;;5073384;28;20276;-75
2021/01/20 02:35:31;;;;;;;18.20;14.45;;;5.50;99.90;;;;;;5056978;28;20185;-75
2021/01/20 02:38:00;;;;;;;20.15;15.38;;;5.50;99.90;;;;;;5053161;28;20281;-75
2021/01/20 02:40:26;;;;;;;22.25;16.10;;;5.60;99.90;;;;;;5053166;28;20225;-76
2021/01/20 02:42:52;;;;;;;22.15;15.50;;;5.50;99.90;;;;;;5052736;28;20256;-76
2021/01/20 02:45:19;;;;;;;20.50;15.90;;;5.60;99.90;;;;;;5053319;28;20645;-76
2021/01/20 02:47:48;;;;;;;22.38;15.02;;;5.60;99.90;;;;;;5052988;28;20582;-76
2021/01/20 02:50:15;;;;;;;20.48;16.08;;;5.60;99.90;;;;;;5053091;28;20194;-76
2021/01/20 02:52:52;;;;;;;24.30;15.73;;;5.60;99.90;;;;;;5053012;28;20217;-76
2021/01/20 02:55:22;;;;;;;24.05;15.00;;;5.50;99.90;;;;;;5052935;28;20221;-76
2021/01/20 02:57:55;;;;;;;21.42;16.13;;;5.50;99.90;;;;;;5052975;28;20225;-76
2021/01/20 03:00:23;;;;;;;20.08;15.05;;;5.50;99.90;;;;;;5052962;28;20261;-76
2021/01/20 03:02:53;;;;;;;22.13;15.13;;;5.50;99.90;;;;;;5052818;28;20257;-76
2021/01/20 03:05:20;;;;;;;18.52;14.15;;;5.60;99.90;;;;;;5052695;28;20340;-76
2021/01/20 03:07:46;;;;;;;20.60;14.60;;;5.60;99.90;;;;;;5052698;28;20273;-76
2021/01/20 03:10:14;;;;;;;20.40;15.20;;;5.60;99.90;;;;;;5052688;28;20663;-76
2021/01/20 03:12:42;;;;;;;17.98;15.32;;;5.60;99.90;;;;;;5052820;28;20491;-76
2021/01/20 03:15:12;;;;;;;18.55;14.82;;;5.60;99.90;;;;;;5052800;28;20277;-76
2021/01/20 03:17:38;;;;;;;19.35;15.15;;;5.60;99.90;;;;;;5052671;28;20242;-76
2021/01/20 03:20:07;;;;;;;20.83;15.10;;;5.50;99.90;;;;;;5052708;28;20289;-75
2021/01/20 03:22:33;;;;;;;21.08;14.60;;;5.50;99.90;;;;;;5052447;28;20308;-75
2021/01/20 03:24:59;;;;;;;17.65;13.77;;;5.50;99.90;;;;;;5052842;28;20271;-75
2021/01/20 03:27:25;;;;;;;18.63;14.40;;;5.50;99.90;;;;;;5052339;28;20261;-75
2021/01/20 03:29:51;;;;;;;18.93;14.50;;;5.50;99.90;;;;;;5052812;28;20541;-75
2021/01/20 03:32:16;;;;;;;18.10;14.17;;;5.50;99.90;;;;;;5052533;28;20855;-75
2021/01/20 03:34:42;;;;;;;26.77;16.23;;;5.50;99.90;;;;;;5065056;28;20475;-76
2021/01/20 03:37:10;;;;;;;23.53;15.07;;;5.50;99.90;;;;;;5076518;28;20992;-76
2021/01/20 03:39:36;;;;;;;19.75;16.00;;;5.50;99.90;;;;;;5075727;28;20549;-77
2021/01/20 03:42:02;;;;;;;18.47;14.80;;;5.40;99.90;;;;;;5064424;28;20377;-76
2021/01/20 03:44:28;;;;;;;20.70;14.65;;;5.40;99.90;;;;;;5056318;28;20575;-76
2021/01/20 03:46:54;;;;;;;19.63;14.43;;;5.40;99.90;;;;;;5056499;28;20197;-76
2021/01/20 03:49:20;;;;;;;19.15;14.38;;;5.40;99.90;;;;;;5056382;28;20563;-76
2021/01/20 03:51:46;;;;;;;22.23;15.33;;;5.40;99.90;;;;;;5064185;28;20284;-76
2021/01/20 03:54:13;;;;;;;20.50;14.80;;;5.30;99.90;;;;;;5076164;28;20546;-76
2021/01/20 03:56:40;;;;;;;17.13;14.23;;;5.30;99.90;;;;;;5076022;28;20551;-75
2021/01/20 03:59:06;;;;;;;15.68;13.52;;;5.30;99.90;;;;;;5076240;28;20564;-75
2021/01/20 04:01:33;;;;;;;19.10;15.13;;;5.30;99.90;;;;;;5076180;28;20304;-75
2021/01/20 04:03:59;;;;;;;19.58;14.68;;;5.30;99.90;;;;;;5075856;28;20645;-75
2021/01/20 04:06:25;;;;;;;14.80;12.27;;;5.30;99.90;;;;;;5076139;28;20284;-75
2021/01/20 04:08:51;;;;;;;14.93;12.00;;;5.20;99.90;;;;;;5075775;28;20196;-75
2021/01/20 04:11:17;;;;;;;13.40;11.15;;;5.20;99.90;;;;;;5075851;28;20284;-75
2021/01/20 04:13:44;;;;;;;13.82;11.27;;;5.20;99.90;;;;;;5075951;28;20276;-75
2021/01/20 04:16:10;;;;;;;14.73;10.95;;;5.10;99.90;;;;;;5076207;28;20204;-76
2021/01/20 04:18:36;;;;;;;11.60;10.30;;;5.00;99.90;;;;;;5075835;28;20406;-75
2021/01/20 04:21:02;;;;;;;10.70;9.53;;;5.00;99.90;;;;;;5075822;28;20200;-75
2021/01/20 04:23:28;;;;;;;13.60;9.70;;;4.90;99.90;;;;;;5075703;28;20918;-75
2021/01/20 04:25:54;;;;;;;11.75;8.68;;;4.80;99.90;;;;;;5075288;28;20225;-75
2021/01/20 04:28:21;;;;;;;12.82;8.95;;;4.80;99.90;;;;;;5075817;28;20221;-75
2021/01/20 04:30:47;;;;;;;12.25;8.43;;;4.70;99.90;;;;;;5075917;28;20283;-76
2021/01/20 04:33:13;;;;;;;12.35;8.90;;;4.70;99.90;;;;;;5075629;28;20289;-76
2021/01/20 04:35:39;;;;;;;12.90;9.03;;;4.70;99.90;;;;;;5075360;28;20185;-76
2021/01/20 04:38:05;;;;;;;12.23;9.00;;;4.70;99.90;;;;;;5075390;28;20539;-76
2021/01/20 04:40:31;;;;;;;10.10;8.38;;;4.70;99.90;;;;;;5075556;28;20603;-76
2021/01/20 04:42:58;;;;;;;12.70;8.73;;;4.70;99.90;;;;;;5075382;28;20252;-76
2021/01/20 04:45:25;;;;;;;9.75;8.45;;;4.70;99.90;;;;;;5075323;28;20284;-76
2021/01/20 04:47:51;;;;;;;11.60;8.00;;;4.60;99.90;;;;;;5075345;28;20261;-76
2021/01/20 04:50:20;;;;;;;8.45;7.65;;;4.60;99.90;;;;;;5075200;28;20628;-76
2021/01/20 04:52:47;;;;;;;9.10;7.32;;;4.60;99.90;;;;;;5075122;28;20739;-76
2021/01/20 04:55:14;;;;;;;12.35;8.27;;;4.70;99.90;;;;;;5075117;28;20529;-76
2021/01/20 04:57:40;;;;;;;9.68;7.75;;;4.70;99.90;;;;;;5075202;28;20194;-76
2021/01/20 05:00:09;;;;;;;11.85;7.90;;;4.70;99.90;;;;;;5075008;28;20229;-76
2021/01/20 05:02:36;;;;;;;9.85;7.85;;;4.70;99.90;;;;;;5074983;28;20213;-76
2021/01/20 05:05:04;;;;;;;9.07;8.18;;;4.80;99.90;;;;;;5074752;28;20280;-76
2021/01/20 05:07:31;;;;;;;9.10;8.20;;;4.80;99.90;;;;;;5075149;28;20280;-76
2021/01/20 05:09:57;;;;;;;9.05;7.90;;;4.90;99.90;;;;;;5074909;28;20280;-76
2021/01/20 05:12:37;;;;;;;10.90;8.73;;;4.90;99.90;;;;;;5074995;28;20185;-77
2021/01/20 05:15:06;;;;;;;9.98;8.10;;;4.90;99.90;;;;;;5074742;28;20196;-76
2021/01/20 05:17:32;;;;;;;13.32;9.00;;;4.90;99.90;;;;;;5074674;28;20198;-76
2021/01/20 05:19:59;;;;;;;12.27;8.60;;;4.90;99.90;;;;;;5074487;28;20196;-76
2021/01/20 05:22:25;;;;;;;9.40;7.70;;;5.00;99.90;;;;;;5074672;28;20311;-76
2021/01/20 05:24:58;;;;;;;12.30;8.70;;;4.90;99.90;;;;;;5074610;28;20200;-76
2021/01/20 05:27:27;;;;;;;14.38;9.38;;;5.00;99.90;;;;;;5074244;28;20585;-76
2021/01/20 05:30:00;;;;;;;14.32;8.48;;;5.00;99.90;;;;;;5074406;28;20284;-76
2021/01/20 05:32:27;;;;;;;11.55;7.45;;;5.00;99.90;;;;;;5074296;28;20296;-76
2021/01/20 05:35:02;;;;;;;8.85;7.55;;;5.00;99.90;;;;;;5074126;28;20277;-76
2021/01/20 05:37:28;;;;;;;9.43;6.78;;;5.00;99.90;;;;;;5074361;28;20197;-76
2021/01/20 05:40:08;;;;;;;10.70;8.10;;;5.00;99.90;;;;;;5074341;28;20225;-76
2021/01/20 05:42:46;;;;;;;11.45;8.55;;;5.00;99.90;;;;;;5074062;28;20304;-78
2021/01/20 05:45:13;;;;;;;10.23;6.93;;;4.90;99.90;;;;;;5074261;28;20279;-78
2021/01/20 05:47:39;;;;;;;6.78;6.15;;;4.90;99.90;;;;;;5074276;28;20272;-79
2021/01/20 05:50:07;;;;;;;8.13;7.30;;;4.90;99.90;;;;;;5073947;28;20671;-79
2021/01/20 05:52:33;;;;;;;8.90;7.05;;;4.90;99.90;;;;;;5073956;28;20225;-78
2021/01/20 05:54:59;;;;;;;8.55;6.90;;;4.90;99.90;;;;;;5073916;28;20326;-79
2021/01/20 05:57:28;;;;;;;8.13;7.28;;;4.90;99.90;;;;;;5073393;28;20280;-79
2021/01/20 05:59:54;;;;;;;10.65;7.78;;;4.80;99.90;;;;;;5073960;28;20308;-78
2021/01/20 06:02:21;;;;;;;8.13;7.15;;;4.80;99.90;;;;;;5073880;28;20244;-78
2021/01/20 06:04:48;;;;;;;8.10;6.78;;;4.80;99.90;;;;;;5073857;28;20700;-78
2021/01/20 06:07:15;;;;;;;7.75;6.95;;;4.70;99.90;;;;;;5073684;28;20636;-78
2021/01/20 06:09:43;;;;;;;8.30;6.53;;;4.70;99.90;;;;;;5073577;28;20216;-78
2021/01/20 06:12:11;;;;;;;7.20;6.50;;;4.60;99.90;;;;;;5073811;28;20185;-78
2021/01/20 06:14:38;;;;;;;8.30;7.45;;;4.60;99.90;;;;;;5073743;28;20276;-78
2021/01/20 06:17:11;;;;;;;7.15;6.45;;;4.60;99.90;;;;;;5073616;28;20189;-78
2021/01/20 06:19:45;;;;;;;8.52;6.35;;;4.60;99.90;;;;;;5073606;28;20193;-79
2021/01/20 06:22:16;;;;;;;30.40;19.88;;;4.60;99.90;;;;;;5073274;28;20243;-79
2021/01/20 06:24:46;;;;;;;10.13;7.38;;;4.60;99.90;;;;;;5073665;28;20196;-79
2021/01/20 06:27:18;;;;;;;6.53;5.82;;;4.50;99.90;;;;;;5073044;28;20232;-79
2021/01/20 06:29:48;;;;;;;7.07;5.50;;;4.60;99.90;;;;;;5073486;28;20193;-79
2021/01/20 06:32:19;;;;;;;7.40;6.22;;;4.60;99.90;;;;;;5073291;28;20216;-79
2021/01/20 06:34:54;;;;;;;5.88;5.38;;;4.50;99.90;;;;;;5073100;28;20540;-79
2021/01/20 06:37:34;;;;;;;7.88;6.78;;;4.60;99.90;;;;;;5073214;28;20558;-79
2021/01/20 06:40:01;;;;;;;6.43;5.70;;;4.60;99.90;;;;;;5073162;28;20229;-78
2021/01/20 06:42:32;;;;;;;9.57;5.78;;;4.60;99.90;;;;;;5073106;28;20217;-79
2021/01/20 06:45:14;;;;;;;10.15;6.38;;;4.60;99.90;;;;;;5073051;28;20192;-78
2021/01/20 06:48:02;;;;;;;6.75;6.15;;;4.70;99.90;;;;;;5073081;28;20201;-78
2021/01/20 06:50:29;;;;;;;11.55;5.65;;;4.70;99.90;;;;;;5073156;28;20343;-78
2021/01/20 06:53:03;;;;;;;11.57;6.38;;;4.60;99.90;;;;;;5073011;28;20600;-78
2021/01/20 06:55:33;;;;;;;5.88;5.15;;;4.60;99.90;;;;;;5072785;28;20327;-78
2021/01/20 06:58:19;;;;;;;5.43;4.93;;;4.60;99.90;;;;;;5072858;28;20299;-78
2021/01/20 07:01:11;;;;;;;6.25;4.35;;;4.60;99.90;;;;;;5072931;28;20231;-78
2021/01/20 07:03:41;;;;;;;4.78;4.35;;;4.50;99.90;;;;;;5072851;28;20288;-79
2021/01/20 07:06:40;;;;;;;5.68;5.18;;;4.40;99.90;;;;;;5072739;28;20262;-79
2021/01/20 07:09:09;;;;;;;7.00;4.50;;;4.40;99.90;;;;;;5071804;28;20280;-78
2021/01/20 07:12:08;;;;;;;6.15;5.00;;;4.40;99.90;;;;;;5072760;28;20564;-79
2021/01/20 07:14:34;;;;;;;5.95;5.07;;;4.50;99.90;;;;;;5072790;28;20304;-78
2021/01/20 07:17:04;;;;;;;9.57;4.50;;;4.60;99.90;;;;;;5072802;28;20272;-78
2021/01/20 07:19:32;;;;;;;5.50;5.00;;;4.60;99.90;;;;;;5072880;28;20284;-78
2021/01/20 07:21:59;;;;;;;6.32;4.45;;;4.70;99.90;;;;;;5072332;28;20678;-78
2021/01/20 07:24:26;;;;;;;4.22;3.83;;;4.80;99.90;;;;;;5072713;28;20275;-78
2021/01/20 07:26:52;;;;;;;5.60;4.10;;;4.90;99.90;;;;;;5072298;28;20278;-79
2021/01/20 07:29:19;;;;;;;5.20;4.70;;;5.00;99.90;;;;;;5071771;28;20288;-79
2021/01/20 07:31:46;;;;;;;4.30;4.00;;;5.00;99.90;;;;;;5072779;28;20283;-78
2021/01/20 07:34:12;;;;;;;5.13;4.05;;;5.10;99.90;;;;;;5072647;28;20318;-78
2021/01/20 07:36:38;;;;;;;5.32;4.38;;;5.10;99.90;;;;;;5072615;28;20611;-77
2021/01/20 07:39:18;;;;;;;4.30;3.88;;;5.10;99.90;;;;;;5072466;28;20279;-78
2021/01/20 07:41:51;;;;;;;4.28;3.88;;;5.20;99.90;;;;;;5072579;28;20216;-78
2021/01/20 07:44:17;;;;;;;4.63;3.83;;;5.20;99.90;;;;;;5072611;28;20603;-78
2021/01/20 07:46:43;;;;;;;5.32;3.90;;;5.20;99.90;;;;;;5072466;28;20595;-78
2021/01/20 07:49:10;;;;;;;4.22;3.47;;;5.30;99.90;;;;;;5072301;28;20328;-78
2021/01/20 07:51:36;;;;;;;4.57;3.30;;;5.30;99.90;;;;;;5072314;28;20285;-79
2021/01/20 07:54:04;;;;;;;5.57;4.15;;;5.30;99.90;;;;;;5071582;28;20638;-79
2021/01/20 07:56:30;;;;;;;3.78;3.35;;;5.40;99.90;;;;;;5068934;28;20185;-79
2021/01/20 07:59:13;;;;;;;4.93;3.28;;;5.30;99.90;;;;;;5069068;28;20201;-79
2021/01/20 08:01:39;;;;;;;4.07;3.67;;;5.40;99.90;;;;;;5068184;28;20265;-79
2021/01/20 08:04:17;;;;;;;6.70;4.03;;;5.40;99.90;;;;;;5071426;28;20242;-79
2021/01/20 08:06:43;;;;;;;3.25;2.95;;;5.50;99.90;;;;;;5072222;28;20264;-79
2021/01/20 08:09:09;;;;;;;6.90;3.10;;;5.50;99.90;;;;;;5071534;28;20298;-79
2021/01/20 08:11:36;;;;;;;3.05;2.75;;;5.70;99.90;;;;;;5072242;28;20596;-79
2021/01/20 08:14:03;;;;;;;3.88;3.05;;;5.70;99.90;;;;;;5071884;28;20280;-79
2021/01/20 08:16:32;;;;;;;5.30;2.70;;;5.70;99.90;;;;;;5071756;28;20334;-79
2021/01/20 08:18:59;;;;;;;3.53;3.22;;;5.70;99.90;;;;;;5071502;28;20224;-79
2021/01/20 08:21:25;;;;;;;4.63;3.33;;;5.70;99.90;;;;;;5075610;28;20280;-80
2021/01/20 08:23:54;;;;;;;3.50;2.72;;;5.70;99.90;;;;;;5075615;28;20197;-80
2021/01/20 08:26:26;;;;;;;2.72;2.53;;;5.70;99.90;;;;;;5075320;28;20226;-78
2021/01/20 08:29:04;;;;;;;3.08;2.42;;;5.60;99.90;;;;;;5075405;28;20268;-78
2021/01/20 08:31:31;;;;;;;3.65;2.75;;;5.70;99.90;;;;;;5063860;28;20189;-78
2021/01/20 08:34:13;;;;;;;3.17;2.65;;;5.70;99.90;;;;;;5058458;28;20272;-78
2021/01/20 08:36:50;;;;;;;4.00;2.65;;;5.80;99.90;;;;;;5075407;28;20594;-78
2021/01/20 08:39:16;;;;;;;3.00;2.80;;;5.90;99.90;;;;;;5075261;28;20284;-78
2021/01/20 08:41:42;;;;;;;3.53;2.40;;;6.10;99.90;;;;;;5075143;28;20251;-78
2021/01/20 08:44:15;;;;;;;2.80;2.20;;;6.20;99.90;;;;;;5075093;28;20886;-78
2021/01/20 08:46:42;;;;;;;5.22;2.85;;;6.30;99.90;;;;;;5075122;28;20448;-77
2021/01/20 08:49:08;;;;;;;3.47;3.17;;;6.40;99.90;;;;;;5075240;28;20663;-80
2021/01/20 08:51:34;;;;;;;2.55;2.35;;;6.50;99.90;;;;;;5075056;28;20627;-80
2021/01/20 08:54:10;;;;;;;2.75;2.55;;;6.60;99.90;;;;;;5074996;28;20217;-80
2021/01/20 08:56:36;;;;;;;4.50;2.78;;;6.70;99.90;;;;;;5074914;28;20556;-80
2021/01/20 08:59:02;;;;;;;3.42;3.08;;;6.70;99.90;;;;;;5074383;28;20719;-80
2021/01/20 09:01:29;;;;;;;2.40;2.20;;;6.70;99.90;;;;;;5074964;28;20197;-80
2021/01/20 09:03:57;;;;;;;2.85;2.65;;;6.70;99.90;;;;;;5074665;28;20458;-79
2021/01/20 09:06:24;;;;;;;2.45;2.25;;;6.70;99.90;;;;;;5074874;28;20185;-80
2021/01/20 09:08:50;;;;;;;7.15;5.13;;;6.70;99.90;;;;;;5074543;28;20189;-80
2021/01/20 09:11:16;;;;;;;3.05;2.78;;;6.70;99.90;;;;;;5074864;28;20225;-80
2021/01/20 09:13:42;;;;;;;3.15;2.85;;;6.70;99.90;;;;;;5074724;28;20219;-79
2021/01/20 09:16:08;;;;;;;2.45;2.20;;;6.80;99.90;;;;;;5074653;28;20602;-80
2021/01/20 09:18:35;;;;;;;2.78;1.95;;;6.80;99.90;;;;;;5074461;28;20616;-80
2021/01/20 09:21:01;;;;;;;2.40;2.20;;;7.00;99.90;;;;;;5073710;28;20190;-80
2021/01/20 09:23:27;;;;;;;4.55;2.28;;;7.10;99.90;;;;;;5074251;28;20316;-79
2021/01/20 09:25:54;;;;;;;5.00;3.30;;;7.30;99.90;;;;;;5074159;28;20252;-80
2021/01/20 09:28:20;;;;;;;2.63;2.10;;;7.30;99.90;;;;;;5074498;28;20247;-80
2021/01/20 09:30:47;;;;;;;7.90;2.60;;;7.50;99.90;;;;;;5073821;28;20243;-80
2021/01/20 09:33:13;;;;;;;2.80;2.17;;;7.50;99.90;;;;;;5073839;28;20193;-79
2021/01/20 09:35:40;;;;;;;3.40;1.98;;;7.60;99.90;;;;;;5074221;28;20264;-80
2021/01/20 09:38:07;;;;;;;2.30;2.10;;;7.60;99.90;;;;;;5074052;28;20238;-79
2021/01/20 09:40:33;;;;;;;2.20;2.08;;;7.60;99.90;;;;;;5073935;28;20781;-76
2021/01/20 09:43:00;;;;;;;2.85;2.05;;;7.60;99.90;;;;;;5073950;28;20581;-77
2021/01/20 09:45:27;;;;;;;2.58;2.35;;;7.60;99.90;;;;;;5074191;28;20654;-77
2021/01/20 09:47:55;;;;;;;2.50;2.28;;;7.60;99.90;;;;;;5073813;28;20196;-77
2021/01/20 09:50:22;;;;;;;1.95;1.77;;;7.60;99.90;;;;;;5073917;28;20678;-77
2021/01/20 09:52:49;;;;;;;2.47;2.22;;;7.70;99.90;;;;;;5073724;28;20217;-77
2021/01/20 09:55:15;;;;;;;2.35;2.15;;;7.70;99.90;;;;;;5073645;28;20189;-77
2021/01/20 09:57:42;;;;;;;2.35;2.25;;;7.60;99.90;;;;;;5073876;28;20189;-77
2021/01/20 10:00:09;;;;;;;4.90;2.75;;;7.60;99.90;;;;;;5073473;28;20197;-77
2021/01/20 10:02:37;;;;;;;3.63;2.47;;;7.50;99.90;;;;;;5073646;28;20224;-77
2021/01/20 10:05:03;;;;;;;3.00;2.35;;;7.50;99.90;;;;;;5073398;28;20193;-79
2021/01/20 10:07:29;;;;;;;3.33;2.38;;;7.50;99.90;;;;;;5073602;28;20722;-80
2021/01/20 10:09:57;;;;;;;3.77;2.63;;;7.50;99.90;;;;;;5073371;28;20193;-80
2021/01/20 10:12:23;;;;;;;3.23;2.00;;;7.50;99.90;;;;;;5072009;28;20466;-80
2021/01/20 10:14:49;;;;;;;3.05;2.15;;;7.50;99.90;;;;;;5068463;28;20882;-80
2021/01/20 10:17:15;;;;;;;2.45;2.20;;;7.60;99.90;;;;;;5072139;28;20280;-80
2021/01/20 10:19:43;;;;;;;3.08;2.20;;;7.60;99.90;;;;;;5071588;28;20284;-81
2021/01/20 10:22:09;;;;;;;2.25;2.00;;;7.60;99.90;;;;;;5073106;28;20223;-81
2021/01/20 10:24:35;;;;;;;2.60;2.40;;;7.50;99.90;;;;;;5073202;28;20221;-82
2021/01/20 10:27:02;;;;;;;3.00;2.50;;;7.50;99.90;;;;;;5072917;28;20225;-80
2021/01/20 10:29:29;;;;;;;2.38;2.17;;;7.60;99.90;;;;;;5073115;28;20455;-81
2021/01/20 10:31:55;;;;;;;3.78;2.47;;;7.60;99.90;;;;;;5072887;28;20674;-82
2021/01/20 10:34:21;;;;;;;3.28;2.55;;;7.70;99.90;;;;;;5072846;28;20601;-84
2021/01/20 10:36:47;;;;;;;2.50;2.30;;;7.80;99.90;;;;;;5073130;28;20189;-81
2021/01/20 10:39:13;;;;;;;2.65;2.05;;;7.90;99.90;;;;;;5072838;28;20242;-78
2021/01/20 10:41:39;;;;;;;1.95;1.75;;;8.00;99.90;;;;;;5072745;28;20276;-78
2021/01/20 10:44:07;;;;;;;3.07;2.77;;;8.10;99.90;;;;;;5072535;28;20223;-78
2021/01/20 10:46:33;;;;;;;3.60;2.25;;;8.20;99.90;;;;;;5072776;28;20452;-78
2021/01/20 10:49:01;;;;;;;2.00;1.90;;;8.30;99.90;;;;;;5072323;28;20284;-78
2021/01/20 10:51:28;;;;;;;2.08;1.90;;;8.40;99.90;;;;;;5072583;28;20225;-78
2021/01/20 10:53:55;;;;;;;3.90;2.27;;;8.50;99.90;;;;;;5072760;28;20250;-78
2021/01/20 10:56:21;;;;;;;4.63;1.90;;;8.50;99.90;;;;;;5072918;28;20530;-78
2021/01/20 10:58:47;;;;;;;3.30;1.97;;;8.60;99.90;;;;;;5072549;28;20953;-78
2021/01/20 11:01:13;;;;;;;2.70;2.50;;;8.70;99.90;;;;;;5072681;28;20494;-78
2021/01/20 11:03:40;;;;;;;3.37;2.47;;;8.80;99.90;;;;;;5072391;28;20515;-78
2021/01/20 11:06:06;;;;;;;2.23;1.87;;;8.90;99.90;;;;;;5072582;28;20542;-78
2021/01/20 11:08:32;;;;;;;3.00;2.13;;;9.00;99.90;;;;;;5072694;28;20517;-75
2021/01/20 11:10:58;;;;;;;3.13;2.23;;;9.00;99.90;;;;;;5072589;28;20447;-76
2021/01/20 11:13:24;;;;;;;2.60;2.40;;;9.10;99.90;;;;;;5072552;28;20508;-75
2021/01/20 11:15:51;;;;;;;2.50;2.10;;;9.20;99.90;;;;;;5072535;28;20535;-75
2021/01/20 11:18:20;;;;;;;2.53;2.30;;;9.30;99.90;;;;;;5072954;28;20451;-75
2021/01/20 11:20:47;;;;;;;1.70;1.60;;;9.20;99.90;;;;;;5072459;28;21003;-75
2021/01/20 11:23:16;;;;;;;2.07;1.97;;;9.30;99.90;;;;;;5072201;28;20479;-75
2021/01/20 11:25:44;;;;;;;4.73;2.50;;;9.30;99.90;;;;;;5071325;28;20472;-75
2021/01/20 11:28:11;;;;;;;2.30;2.10;;;9.30;99.90;;;;;;5072698;28;20443;-75
2021/01/20 11:30:37;;;;;;;3.17;2.03;;;9.40;99.90;;;;;;5072583;28;20455;-75
2021/01/20 11:33:04;;;;;;;3.53;2.57;;;9.40;99.90;;;;;;5073097;28;20479;-75
2021/01/20 11:35:31;;;;;;;2.10;2.00;;;9.50;99.90;;;;;;5072705;28;20451;-75
2021/01/20 11:37:57;;;;;;;2.37;1.80;;;9.50;99.90;;;;;;5072992;28;20447;-75
2021/01/20 11:40:23;;;;;;;2.63;2.43;;;9.50;99.90;;;;;;5072473;28;20547;-75
2021/01/20 11:42:56;;;;;;;2.50;1.67;;;9.60;99.90;;;;;;5072523;28;20570;-75
2021/01/20 11:45:23;;;;;;;3.10;2.10;;;9.60;99.90;;;;;;5072581;28;20580;-75
2021/01/20 11:47:50;;;;;;;2.27;2.00;;;9.60;99.90;;;;;;5072878;28;20538;-76
2021/01/20 11:50:16;;;;;;;1.97;1.80;;;9.60;99.90;;;;;;5072737;28;20455;-75
2021/01/20 11:52:43;;;;;;;2.03;1.77;;;9.50;99.90;;;;;;5072682;28;20479;-75
2021/01/20 11:55:10;;;;;;;2.33;2.13;;;9.60;99.90;;;;;;5074439;28;20957;-75
2021/01/20 11:57:36;;;;;;;1.93;1.57;;;9.50;99.90;;;;;;5076200;28;20508;-75
2021/01/20 12:00:03;;;;;;;2.50;1.83;;;9.50;99.90;;;;;;5072025;28;21005;-75
2021/01/20 12:02:29;;;;;;;2.50;1.80;;;9.60;99.90;;;;;;5075738;28;20640;-75
2021/01/20 12:04:55;;;;;;;2.07;1.87;;;9.60;99.90;;;;;;5075633;28;20443;-75
2021/01/20 12:07:21;;;;;;;2.00;1.80;;;9.60;99.90;;;;;;5075718;28;21023;-75
2021/01/20 12:09:47;;;;;;;2.17;1.97;;;9.60;99.90;;;;;;5075409;28;20489;-75
2021/01/20 12:12:14;;;;;;;1.70;1.60;;;9.70;99.90;;;;;;5075359;28;20519;-75
2021/01/20 12:14:40;;;;;;;1.60;1.50;;;9.70;99.90;;;;;;5075560;28;20447;-75
2021/01/20 12:17:06;;;;;;;2.20;2.00;;;9.70;99.90;;;;;;5065803;28;20522;-75
2021/01/20 12:19:32;;;;;;;1.90;1.80;;;9.70;99.90;;;;;;5075453;28;20534;-75
2021/01/20 12:21:58;;;;;;;9.47;2.10;;;9.70;99.90;;;;;;5075040;28;20471;-75
2021/01/20 12:24:24;;;;;;;6.17;3.50;;;9.80;99.90;;;;;;5075065;28;20453;-75
2021/01/20 12:26:53;;;;;;;7.63;2.57;;;9.80;99.90;;;;;;5074688;28;20467;-75
2021/01/20 12:29:19;;;;;;;3.73;1.90;;;9.90;99.90;;;;;;5075104;28;20855;-75
2021/01/20 12:31:45;;;;;;;1.80;1.60;;;9.90;99.90;;;;;;5074958;28;20447;-75
2021/01/20 12:34:11;;;;;;;3.73;1.57;;;10.00;99.90;;;;;;5074826;28;20927;-75
2021/01/20 12:36:37;;;;;;;2.30;1.43;;;10.00;99.90;;;;;;5074841;28;20482;-75
2021/01/20 12:39:04;;;;;;;2.47;1.50;;;10.10;99.90;;;;;;5074842;28;20444;-75
2021/01/20 12:41:30;;;;;;;1.50;1.40;;;10.10;99.90;;;;;;5074603;28;20528;-75
2021/01/20 12:43:57;;;;;;;3.13;1.50;;;10.10;99.90;;;;;;5074542;28;20532;-75
2021/01/20 12:46:23;;;;;;;2.90;1.80;;;10.10;99.90;;;;;;5075092;28;20543;-75
2021/01/20 12:48:49;;;;;;;2.40;1.70;;;10.10;99.90;;;;;;5074805;28;20447;-75
2021/01/20 12:51:15;;;;;;;4.97;2.10;;;10.10;99.90;;;;;;5074721;28;20489;-75
2021/01/20 12:53:41;;;;;;;1.83;1.70;;;10.10;99.90;;;;;;5074498;28;20966;-75